sensor_id;sensor_type;location;lat;lon;timestamp;pressure;altitude;pressure_sealevel;temperature;humidity
80777;BME280;70169;51.262;6.336;2023-05-14T08:34:51;101061.78;;;24.78;43.76
80777;BME280;70169;51.262;6.336;2023-05-14T08:35:54;101059.94;;;23.65;46.54
80777;BME280;70169;51.262;6.336;2023-05-14T08:36:58;101057.25;;;23.05;47.80
80777;BME280;70169;51.262;6.336;2023-05-14T08:38:01;101055.72;;;22.73;49.04
80777;BME280;70169;51.262;6.336;2023-05-14T08:39:04;101058.16;;;24.64;47.74
80777;BME280;70169;51.262;6.336;2023-05-14T08:40:09;101062.44;;;26.13;44.06
80777;BME280;70169;51.262;6.336;2023-05-14T08:41:13;101056.59;;;26.06;42.52
80777;BME280;70169;51.262;6.336;2023-05-14T08:42:18;101057.97;;;24.50;45.19
80777;BME280;70169;51.262;6.336;2023-05-14T08:49:14;101056.59;;;24.57;44.25
80777;BME280;70169;51.262;6.336;2023-05-14T08:53:37;101053.44;;;23.21;47.72
80777;BME280;70169;51.262;6.336;2023-05-14T08:57:22;101049.22;;;22.94;48.41
80777;BME280;70169;51.262;6.336;2023-05-14T09:01:07;101038.50;;;22.74;49.04
80777;BME280;70169;51.262;6.336;2023-05-14T09:04:55;101050.63;;;22.66;49.39
80777;BME280;70169;51.262;6.336;2023-05-14T09:08:38;101053.59;;;22.65;49.42
80777;BME280;70169;51.262;6.336;2023-05-14T09:12:20;101059.00;;;22.60;49.30
80777;BME280;70169;51.262;6.336;2023-05-14T09:16:03;101048.75;;;22.56;49.58
80777;BME280;70169;51.262;6.336;2023-05-14T09:19:46;101054.41;;;22.55;49.67
80777;BME280;70169;51.262;6.336;2023-05-14T09:26:35;101038.53;;;22.53;49.65
80777;BME280;70169;51.262;6.336;2023-05-14T09:30:17;101047.09;;;22.76;49.03
80777;BME280;70169;51.262;6.336;2023-05-14T09:33:59;101044.41;;;22.71;48.97
80777;BME280;70169;51.262;6.336;2023-05-14T09:37:43;101042.81;;;22.75;48.51
80777;BME280;70169;51.262;6.336;2023-05-14T09:54:35;101058.91;;;20.93;49.07
80777;BME280;70169;51.262;6.336;2023-05-14T09:58:18;101053.16;;;20.04;51.10
80777;BME280;70169;51.262;6.336;2023-05-14T10:02:00;101050.94;;;19.47;52.83
80777;BME280;70169;51.262;6.336;2023-05-14T10:05:43;101054.28;;;18.93;53.34
80777;BME280;70169;51.262;6.336;2023-05-14T10:09:26;101047.31;;;18.75;54.89
80777;BME280;70169;51.262;6.336;2023-05-14T10:13:13;101039.22;;;18.53;53.66
80777;BME280;70169;51.262;6.336;2023-05-14T10:16:57;101038.16;;;18.71;55.98
80777;BME280;70169;51.262;6.336;2023-05-14T10:20:41;101039.69;;;18.67;55.46
80777;BME280;70169;51.262;6.336;2023-05-14T10:24:24;101041.88;;;18.70;55.53
80777;BME280;70169;51.262;6.336;2023-05-14T10:28:07;101033.41;;;18.78;55.98
80777;BME280;70169;51.262;6.336;2023-05-14T10:35:57;101030.59;;;18.85;55.45
80777;BME280;70169;51.262;6.336;2023-05-14T10:43:28;101023.69;;;18.89;54.21
80777;BME280;70169;51.262;6.336;2023-05-14T10:47:12;101015.59;;;19.06;54.11
80777;BME280;70169;51.262;6.336;2023-05-14T10:50:56;101004.94;;;19.11;52.71
80777;BME280;70169;51.262;6.336;2023-05-14T10:54:38;101014.16;;;19.20;53.17
80777;BME280;70169;51.262;6.336;2023-05-14T10:58:21;101005.88;;;19.22;53.12
80777;BME280;70169;51.262;6.336;2023-05-14T11:02:18;100997.72;;;19.34;53.82
80777;BME280;70169;51.262;6.336;2023-05-14T11:06:02;100998.41;;;19.51;54.88
80777;BME280;70169;51.262;6.336;2023-05-14T11:09:45;100992.81;;;19.80;54.79
80777;BME280;70169;51.262;6.336;2023-05-14T11:13:28;100992.56;;;19.81;52.73
80777;BME280;70169;51.262;6.336;2023-05-14T11:17:11;100988.88;;;19.88;52.03
80777;BME280;70169;51.262;6.336;2023-05-14T11:21:02;100983.75;;;20.18;52.54
80777;BME280;70169;51.262;6.336;2023-05-14T11:24:45;100974.38;;;20.21;50.25
80777;BME280;70169;51.262;6.336;2023-05-14T11:28:27;100974.28;;;20.48;51.47
80777;BME280;70169;51.262;6.336;2023-05-14T11:32:11;100969.47;;;20.50;50.93
80777;BME280;70169;51.262;6.336;2023-05-14T11:35:53;100961.00;;;20.69;51.13
80777;BME280;70169;51.262;6.336;2023-05-14T11:39:36;100966.75;;;20.93;48.69
80777;BME280;70169;51.262;6.336;2023-05-14T11:43:18;100960.94;;;21.32;47.16
80777;BME280;70169;51.262;6.336;2023-05-14T11:47:01;100955.38;;;21.59;46.07
80777;BME280;70169;51.262;6.336;2023-05-14T11:50:47;100957.72;;;21.35;46.27
80777;BME280;70169;51.262;6.336;2023-05-14T11:54:32;100951.25;;;21.21;45.67
80777;BME280;70169;51.262;6.336;2023-05-14T11:58:14;100956.09;;;21.24;46.46
80777;BME280;70169;51.262;6.336;2023-05-14T12:01:58;100950.34;;;20.94;45.72
80777;BME280;70169;51.262;6.336;2023-05-14T12:05:54;100937.91;;;20.73;44.46
80777;BME280;70169;51.262;6.336;2023-05-14T12:09:40;100935.94;;;20.58;44.17
80777;BME280;70169;51.262;6.336;2023-05-14T12:13:26;100945.56;;;20.54;43.69
80777;BME280;70169;51.262;6.336;2023-05-14T12:17:11;100936.97;;;20.47;42.74
80777;BME280;70169;51.262;6.336;2023-05-14T12:20:54;100938.41;;;20.65;43.03
80777;BME280;70169;51.262;6.336;2023-05-14T12:24:36;100930.91;;;20.67;42.58
80777;BME280;70169;51.262;6.336;2023-05-14T12:28:22;100929.44;;;20.49;41.47
80777;BME280;70169;51.262;6.336;2023-05-14T12:32:08;100927.28;;;20.46;42.69
80777;BME280;70169;51.262;6.336;2023-05-14T12:35:54;100919.34;;;20.23;44.29
80777;BME280;70169;51.262;6.336;2023-05-14T12:39:42;100915.81;;;20.08;45.64
80777;BME280;70169;51.262;6.336;2023-05-14T12:43:24;100908.94;;;19.90;44.51
80777;BME280;70169;51.262;6.336;2023-05-14T12:47:12;100900.50;;;20.08;43.40
80777;BME280;70169;51.262;6.336;2023-05-14T12:50:54;100902.44;;;20.18;41.77
80777;BME280;70169;51.262;6.336;2023-05-14T12:54:37;100890.69;;;20.29;41.46
80777;BME280;70169;51.262;6.336;2023-05-14T12:58:21;100897.81;;;20.56;41.91
80777;BME280;70169;51.262;6.336;2023-05-14T13:02:03;100890.94;;;20.75;42.21
80777;BME280;70169;51.262;6.336;2023-05-14T13:05:46;100895.53;;;21.01;42.32
80777;BME280;70169;51.262;6.336;2023-05-14T13:09:28;100894.22;;;21.13;41.55
80777;BME280;70169;51.262;6.336;2023-05-14T13:13:11;100883.25;;;21.25;40.63
80777;BME280;70169;51.262;6.336;2023-05-14T13:16:54;100883.50;;;21.29;40.54
80777;BME280;70169;51.262;6.336;2023-05-14T13:20:36;100880.25;;;21.01;40.11
80777;BME280;70169;51.262;6.336;2023-05-14T13:24:18;100884.41;;;20.61;40.14
80777;BME280;70169;51.262;6.336;2023-05-14T13:28:01;100877.41;;;20.60;42.90
80777;BME280;70169;51.262;6.336;2023-05-14T13:31:43;100870.38;;;20.54;43.28
80777;BME280;70169;51.262;6.336;2023-05-14T13:35:25;100867.81;;;20.80;43.67
80777;BME280;70169;51.262;6.336;2023-05-14T13:39:11;100871.59;;;20.84;41.39
80777;BME280;70169;51.262;6.336;2023-05-14T13:42:53;100866.25;;;20.99;40.64
80777;BME280;70169;51.262;6.336;2023-05-14T13:46:35;100862.53;;;21.21;39.68
80777;BME280;70169;51.262;6.336;2023-05-14T13:50:18;100862.00;;;21.39;39.62
80777;BME280;70169;51.262;6.336;2023-05-14T13:54:00;100857.69;;;21.33;37.81
80777;BME280;70169;51.262;6.336;2023-05-14T13:57:42;100847.78;;;21.28;36.96
80777;BME280;70169;51.262;6.336;2023-05-14T14:01:26;100854.72;;;21.35;37.96
80777;BME280;70169;51.262;6.336;2023-05-14T14:05:08;100859.06;;;21.30;37.55
80777;BME280;70169;51.262;6.336;2023-05-14T14:08:52;100849.09;;;21.31;38.04
80777;BME280;70169;51.262;6.336;2023-05-14T14:12:34;100844.25;;;21.18;37.38
80777;BME280;70169;51.262;6.336;2023-05-14T14:16:16;100842.94;;;21.25;38.16
80777;BME280;70169;51.262;6.336;2023-05-14T14:19:59;100838.88;;;21.23;38.80
80777;BME280;70169;51.262;6.336;2023-05-14T14:23:41;100838.34;;;21.21;39.02
80777;BME280;70169;51.262;6.336;2023-05-14T14:27:23;100835.38;;;21.27;40.07
80777;BME280;70169;51.262;6.336;2023-05-14T14:31:06;100838.09;;;21.17;38.42
80777;BME280;70169;51.262;6.336;2023-05-14T14:34:48;100839.97;;;21.27;39.27
80777;BME280;70169;51.262;6.336;2023-05-14T14:38:30;100832.44;;;21.34;40.19
80777;BME280;70169;51.262;6.336;2023-05-14T14:42:13;100825.19;;;21.40;40.53
80777;BME280;70169;51.262;6.336;2023-05-14T14:45:55;100821.13;;;21.47;39.63
80777;BME280;70169;51.262;6.336;2023-05-14T14:49:37;100818.44;;;21.42;39.80
80777;BME280;70169;51.262;6.336;2023-05-14T14:53:20;100819.81;;;21.50;40.57
80777;BME280;70169;51.262;6.336;2023-05-14T14:57:03;100811.19;;;21.38;39.54
80777;BME280;70169;51.262;6.336;2023-05-14T15:00:46;100810.91;;;21.34;39.50
80777;BME280;70169;51.262;6.336;2023-05-14T15:04:29;100801.78;;;21.45;41.68
80777;BME280;70169;51.262;6.336;2023-05-14T15:08:15;100813.06;;;21.37;41.33
80777;BME280;70169;51.262;6.336;2023-05-14T15:11:57;100811.19;;;21.22;40.18
80777;BME280;70169;51.262;6.336;2023-05-14T15:15:39;100807.16;;;21.15;39.58
80777;BME280;70169;51.262;6.336;2023-05-14T15:19:22;100801.25;;;21.12;39.83
80777;BME280;70169;51.262;6.336;2023-05-14T15:23:04;100806.88;;;21.16;40.21
80777;BME280;70169;51.262;6.336;2023-05-14T15:26:47;100806.91;;;21.06;39.77
80777;BME280;70169;51.262;6.336;2023-05-14T15:30:29;100810.38;;;21.06;40.33
80777;BME280;70169;51.262;6.336;2023-05-14T15:34:11;100809.03;;;20.99;40.24
80777;BME280;70169;51.262;6.336;2023-05-14T15:37:54;100804.97;;;20.96;40.12
80777;BME280;70169;51.262;6.336;2023-05-14T15:41:40;100805.53;;;20.98;40.94
80777;BME280;70169;51.262;6.336;2023-05-14T15:45:22;100801.75;;;20.89;40.52
80777;BME280;70169;51.262;6.336;2023-05-14T15:49:05;100791.28;;;20.82;39.54
80777;BME280;70169;51.262;6.336;2023-05-14T15:52:47;100796.38;;;20.94;41.26
80777;BME280;70169;51.262;6.336;2023-05-14T15:56:29;100792.91;;;20.88;40.59
80777;BME280;70169;51.262;6.336;2023-05-14T16:00:12;100796.66;;;20.92;41.47
80777;BME280;70169;51.262;6.336;2023-05-14T16:03:55;100787.22;;;20.74;40.40
80777;BME280;70169;51.262;6.336;2023-05-14T16:07:37;100792.88;;;20.83;41.90
80777;BME280;70169;51.262;6.336;2023-05-14T16:11:20;100793.66;;;20.68;41.62
80777;BME280;70169;51.262;6.336;2023-05-14T16:15:02;100784.81;;;20.68;41.91
80777;BME280;70169;51.262;6.336;2023-05-14T16:18:45;100793.13;;;20.66;42.95
80777;BME280;70169;51.262;6.336;2023-05-14T16:22:27;100787.72;;;20.56;43.45
80777;BME280;70169;51.262;6.336;2023-05-14T16:27:25;100781.94;;;20.16;44.33
80777;BME280;70169;51.262;6.336;2023-05-14T16:31:08;100792.53;;;19.91;44.16
80777;BME280;70169;51.262;6.336;2023-05-14T16:34:50;100786.25;;;19.75;44.77
80777;BME280;70169;51.262;6.336;2023-05-14T16:38:32;100784.53;;;19.58;43.58
80777;BME280;70169;51.262;6.336;2023-05-14T16:42:15;100783.69;;;19.53;44.52
80777;BME280;70169;51.262;6.336;2023-05-14T16:45:57;100782.56;;;19.43;45.15
80777;BME280;70169;51.262;6.336;2023-05-14T16:49:39;100778.50;;;19.36;45.57
80777;BME280;70169;51.262;6.336;2023-05-14T16:53:22;100778.97;;;19.27;45.92
80777;BME280;70169;51.262;6.336;2023-05-14T16:57:04;100780.53;;;19.23;46.17
80777;BME280;70169;51.262;6.336;2023-05-14T17:00:46;100784.22;;;19.17;46.63
80777;BME280;70169;51.262;6.336;2023-05-14T17:04:29;100787.41;;;19.14;47.28
80777;BME280;70169;51.262;6.336;2023-05-14T17:08:11;100769.34;;;18.99;47.69
80777;BME280;70169;51.262;6.336;2023-05-14T17:11:54;100788.66;;;19.01;47.64
80777;BME280;70169;51.262;6.336;2023-05-14T17:15:38;100780.28;;;18.92;47.53
80777;BME280;70169;51.262;6.336;2023-05-14T17:19:22;100792.53;;;18.88;47.87
80777;BME280;70169;51.262;6.336;2023-05-14T17:23:05;100791.66;;;18.83;47.97
80777;BME280;70169;51.262;6.336;2023-05-14T17:26:47;100790.78;;;18.77;47.70
80777;BME280;70169;51.262;6.336;2023-05-14T17:30:29;100789.44;;;18.74;47.47
80777;BME280;70169;51.262;6.336;2023-05-14T17:34:12;100796.09;;;18.72;47.97
80777;BME280;70169;51.262;6.336;2023-05-14T17:37:54;100782.91;;;18.65;48.50
80777;BME280;70169;51.262;6.336;2023-05-14T17:41:37;100786.41;;;18.66;48.76
80777;BME280;70169;51.262;6.336;2023-05-14T17:45:19;100793.34;;;18.62;48.87
80777;BME280;70169;51.262;6.336;2023-05-14T17:49:01;100795.13;;;18.56;49.34
80777;BME280;70169;51.262;6.336;2023-05-14T17:52:44;100798.31;;;18.53;49.59
80777;BME280;70169;51.262;6.336;2023-05-14T17:56:27;100782.13;;;18.43;50.36
80777;BME280;70169;51.262;6.336;2023-05-14T18:00:10;100797.16;;;18.44;49.92
80777;BME280;70169;51.262;6.336;2023-05-14T18:03:53;100797.91;;;18.39;49.79
80777;BME280;70169;51.262;6.336;2023-05-14T18:07:35;100797.59;;;18.35;49.84
80777;BME280;70169;51.262;6.336;2023-05-14T18:11:18;100797.84;;;18.34;50.24
80777;BME280;70169;51.262;6.336;2023-05-14T18:15:00;100794.41;;;18.16;49.95
80777;BME280;70169;51.262;6.336;2023-05-14T18:18:43;100797.94;;;18.22;50.19
80777;BME280;70169;51.262;6.336;2023-05-14T18:22:25;100800.25;;;18.13;50.14
80777;BME280;70169;51.262;6.336;2023-05-14T18:26:08;100801.78;;;18.09;50.44
80777;BME280;70169;51.262;6.336;2023-05-14T18:29:50;100803.59;;;18.03;50.86
80777;BME280;70169;51.262;6.336;2023-05-14T18:33:35;100807.50;;;17.96;51.62
80777;BME280;70169;51.262;6.336;2023-05-14T18:37:17;100809.06;;;17.92;52.22
80777;BME280;70169;51.262;6.336;2023-05-14T18:41:00;100792.84;;;17.81;53.02
80777;BME280;70169;51.262;6.336;2023-05-14T18:44:42;100801.91;;;17.80;53.54
80777;BME280;70169;51.262;6.336;2023-05-14T18:48:25;100797.22;;;17.71;54.17
80777;BME280;70169;51.262;6.336;2023-05-14T18:52:08;100808.50;;;17.73;54.73
80777;BME280;70169;51.262;6.336;2023-05-14T18:55:50;100815.38;;;17.68;55.49
80777;BME280;70169;51.262;6.336;2023-05-14T18:59:32;100813.69;;;17.62;55.51
80777;BME280;70169;51.262;6.336;2023-05-14T19:03:15;100807.34;;;17.52;56.01
80777;BME280;70169;51.262;6.336;2023-05-14T19:06:57;100810.88;;;17.52;56.24
80777;BME280;70169;51.262;6.336;2023-05-14T19:10:39;100800.25;;;17.40;56.90
80777;BME280;70169;51.262;6.336;2023-05-14T19:14:21;100815.53;;;17.45;57.02
80777;BME280;70169;51.262;6.336;2023-05-14T19:18:04;100820.56;;;17.41;57.52
80777;BME280;70169;51.262;6.336;2023-05-14T19:21:46;100814.00;;;17.32;58.04
80777;BME280;70169;51.262;6.336;2023-05-14T19:25:28;100819.59;;;17.30;58.41
80777;BME280;70169;51.262;6.336;2023-05-14T19:29:11;100827.84;;;17.29;59.10
80777;BME280;70169;51.262;6.336;2023-05-14T19:32:53;100832.06;;;17.25;59.73
80777;BME280;70169;51.262;6.336;2023-05-14T19:36:35;100831.16;;;17.19;59.90
80777;BME280;70169;51.262;6.336;2023-05-14T19:40:18;100830.03;;;17.15;60.40
80777;BME280;70169;51.262;6.336;2023-05-14T19:44:00;100820.69;;;17.01;60.34
80777;BME280;70169;51.262;6.336;2023-05-14T19:47:42;100837.38;;;17.08;60.54
80777;BME280;70169;51.262;6.336;2023-05-14T19:51:25;100838.34;;;17.02;60.52
80777;BME280;70169;51.262;6.336;2023-05-14T19:55:07;100843.09;;;17.00;60.99
80777;BME280;70169;51.262;6.336;2023-05-14T19:58:49;100848.09;;;16.96;61.01
80777;BME280;70169;51.262;6.336;2023-05-14T20:02:32;100841.06;;;16.90;61.54
80777;BME280;70169;51.262;6.336;2023-05-14T20:06:15;100830.97;;;16.80;61.64
80777;BME280;70169;51.262;6.336;2023-05-14T20:09:58;100837.94;;;16.81;61.57
80777;BME280;70169;51.262;6.336;2023-05-14T20:13:40;100832.97;;;16.73;61.80
80777;BME280;70169;51.262;6.336;2023-05-14T20:17:23;100841.31;;;16.76;61.81
80777;BME280;70169;51.262;6.336;2023-05-14T20:21:05;100846.09;;;16.74;61.92
80777;BME280;70169;51.262;6.336;2023-05-14T20:24:48;100829.28;;;16.62;61.72
80777;BME280;70169;51.262;6.336;2023-05-14T20:28:31;100849.47;;;16.70;61.87
80777;BME280;70169;51.262;6.336;2023-05-14T20:32:13;100836.81;;;16.65;61.96
80777;BME280;70169;51.262;6.336;2023-05-14T20:35:56;100838.09;;;16.63;62.42
80777;BME280;70169;51.262;6.336;2023-05-14T20:39:38;100838.81;;;16.58;62.58
80777;BME280;70169;51.262;6.336;2023-05-14T20:43:21;100833.13;;;16.54;62.51
80777;BME280;70169;51.262;6.336;2023-05-14T20:47:04;100821.69;;;16.42;62.57
80777;BME280;70169;51.262;6.336;2023-05-14T20:50:46;100846.03;;;16.46;62.81
80777;BME280;70169;51.262;6.336;2023-05-14T20:54:28;100847.09;;;16.45;62.93
80777;BME280;70169;51.262;6.336;2023-05-14T20:58:10;100825.19;;;16.31;62.73
80777;BME280;70169;51.262;6.336;2023-05-14T21:01:53;100818.25;;;16.30;63.43
80777;BME280;70169;51.262;6.336;2023-05-14T21:05:35;100835.75;;;16.37;63.82
80777;BME280;70169;51.262;6.336;2023-05-14T21:09:17;100830.66;;;16.36;64.18
80777;BME280;70169;51.262;6.336;2023-05-14T21:13:01;100828.22;;;16.34;64.61
80777;BME280;70169;51.262;6.336;2023-05-14T21:16:44;100830.28;;;16.32;65.01
80777;BME280;70169;51.262;6.336;2023-05-14T21:20:26;100824.41;;;16.18;65.21
80777;BME280;70169;51.262;6.336;2023-05-14T21:24:08;100821.97;;;16.17;65.82
80777;BME280;70169;51.262;6.336;2023-05-14T21:27:51;100827.78;;;16.14;66.07
80777;BME280;70169;51.262;6.336;2023-05-14T21:31:33;100818.75;;;16.15;66.86
80777;BME280;70169;51.262;6.336;2023-05-14T21:35:15;100837.28;;;16.21;67.45
80777;BME280;70169;51.262;6.336;2023-05-14T21:38:58;100836.44;;;16.21;67.57
80777;BME280;70169;51.262;6.336;2023-05-14T21:42:40;100828.56;;;16.14;68.16
80777;BME280;70169;51.262;6.336;2023-05-14T21:46:22;100828.81;;;16.13;68.48
80777;BME280;70169;51.262;6.336;2023-05-14T21:50:05;100826.03;;;16.08;68.90
80777;BME280;70169;51.262;6.336;2023-05-14T21:53:48;100827.19;;;16.00;69.62
80777;BME280;70169;51.262;6.336;2023-05-14T21:57:30;100822.47;;;16.02;69.81
80777;BME280;70169;51.262;6.336;2023-05-14T22:01:12;100817.59;;;15.99;69.89
80777;BME280;70169;51.262;6.336;2023-05-14T22:04:54;100816.75;;;15.98;70.00
80777;BME280;70169;51.262;6.336;2023-05-14T22:08:37;100812.63;;;15.91;70.15
80777;BME280;70169;51.262;6.336;2023-05-14T22:12:20;100825.69;;;15.92;70.22
80777;BME280;70169;51.262;6.336;2023-05-14T22:16:02;100803.00;;;15.78;70.30
80777;BME280;70169;51.262;6.336;2023-05-14T22:19:44;100819.56;;;15.80;70.51
80777;BME280;70169;51.262;6.336;2023-05-14T22:23:27;100811.56;;;15.80;70.55
80777;BME280;70169;51.262;6.336;2023-05-14T22:27:09;100819.78;;;15.78;70.58
80777;BME280;70169;51.262;6.336;2023-05-14T22:30:52;100807.34;;;15.72;70.45
80777;BME280;70169;51.262;6.336;2023-05-14T22:34:34;100795.31;;;15.58;71.07
80777;BME280;70169;51.262;6.336;2023-05-14T22:38:17;100810.94;;;15.66;71.00
80777;BME280;70169;51.262;6.336;2023-05-14T22:42:01;100806.91;;;15.63;71.12
80777;BME280;70169;51.262;6.336;2023-05-14T22:45:43;100813.97;;;15.58;71.15
80777;BME280;70169;51.262;6.336;2023-05-14T22:49:25;100804.66;;;15.48;71.67
80777;BME280;70169;51.262;6.336;2023-05-14T22:53:07;100795.53;;;15.44;71.85
80777;BME280;70169;51.262;6.336;2023-05-14T22:56:50;100789.03;;;15.40;71.80
80777;BME280;70169;51.262;6.336;2023-05-14T23:00:32;100781.16;;;15.34;72.20
80777;BME280;70169;51.262;6.336;2023-05-14T23:04:14;100787.06;;;15.36;72.13
80777;BME280;70169;51.262;6.336;2023-05-14T23:07:57;100775.81;;;15.22;72.11
80777;BME280;70169;51.262;6.336;2023-05-14T23:11:39;100794.56;;;15.27;72.35
80777;BME280;70169;51.262;6.336;2023-05-14T23:15:21;100779.06;;;15.24;72.16
80777;BME280;70169;51.262;6.336;2023-05-14T23:19:04;100772.44;;;15.14;72.73
80777;BME280;70169;51.262;6.336;2023-05-14T23:22:46;100785.50;;;15.16;72.60
80777;BME280;70169;51.262;6.336;2023-05-14T23:26:28;100779.84;;;15.12;72.51
80777;BME280;70169;51.262;6.336;2023-05-14T23:30:11;100783.41;;;15.06;72.74
80777;BME280;70169;51.262;6.336;2023-05-14T23:33:53;100775.66;;;15.05;73.05
80777;BME280;70169;51.262;6.336;2023-05-14T23:37:35;100774.72;;;14.99;73.20
80777;BME280;70169;51.262;6.336;2023-05-14T23:41:22;100773.91;;;14.99;73.40
80777;BME280;70169;51.262;6.336;2023-05-14T23:45:05;100769.50;;;14.92;73.47
80777;BME280;70169;51.262;6.336;2023-05-14T23:48:47;100769.72;;;14.91;73.21
80777;BME280;70169;51.262;6.336;2023-05-14T23:52:30;100771.78;;;14.89;73.54
80777;BME280;70169;51.262;6.336;2023-05-14T23:56:12;100758.59;;;14.82;73.54
80777;BME280;70169;51.262;6.336;2023-05-14T23:59:54;100768.88;;;14.79;73.47
